createdAt,value
2023-04-04T00:00:52.954Z,1.23
2023-04-04T00:03:21.418Z,1.50
2023-04-04T00:05:51.895Z,1.00
2023-04-04T00:08:20.161Z,1.50
2023-04-04T00:10:49.690Z,1.80
2023-04-04T00:13:17.866Z,1.40
2023-04-04T00:15:46.070Z,1.43
2023-04-04T00:18:14.339Z,1.13
2023-04-04T00:20:42.786Z,1.30
2023-04-04T00:23:11.895Z,1.27
2023-04-04T00:25:40.063Z,1.33
2023-04-04T00:28:09.545Z,1.63
2023-04-04T00:30:38.022Z,1.03
2023-04-04T00:33:06.519Z,1.30
2023-04-04T00:35:35.000Z,1.40
2023-04-04T00:38:03.293Z,0.90
2023-04-04T00:40:31.468Z,1.27
2023-04-04T00:43:00.675Z,1.20
2023-04-04T00:45:31.341Z,1.10
2023-04-04T00:48:00.274Z,1.10
2023-04-04T00:50:28.399Z,1.07
2023-04-04T00:52:56.968Z,1.10
2023-04-04T00:55:25.735Z,1.90
2023-04-04T00:57:54.298Z,1.30
2023-04-04T01:00:22.696Z,1.67
2023-04-04T01:02:52.724Z,1.30
2023-04-04T01:05:21.086Z,1.20
2023-04-04T01:07:49.725Z,1.23
2023-04-04T01:10:18.240Z,0.90
2023-04-04T01:12:46.720Z,1.47
2023-04-04T01:15:14.919Z,1.30
2023-04-04T01:17:44.820Z,1.10
2023-04-04T01:20:16.659Z,1.83
2023-04-04T01:22:50.487Z,1.80
2023-04-04T01:25:21.956Z,1.60
2023-04-04T01:27:58.084Z,1.93
2023-04-04T01:30:29.266Z,1.67
2023-04-04T01:33:02.762Z,1.60
2023-04-04T01:35:37.936Z,1.50
2023-04-04T01:38:19.286Z,1.50
2023-04-04T01:40:50.445Z,1.53
2023-04-04T01:43:21.561Z,1.50
2023-04-04T01:45:50.776Z,1.13
2023-04-04T01:48:19.980Z,1.77
2023-04-04T01:50:52.358Z,2.93
2023-04-04T01:53:21.338Z,1.60
2023-04-04T01:55:49.886Z,0.97
2023-04-04T01:58:18.824Z,1.13
2023-04-04T02:00:48.498Z,1.30
2023-04-04T02:03:16.726Z,1.30
2023-04-04T02:05:44.915Z,1.30
2023-04-04T02:08:13.434Z,1.20
2023-04-04T02:10:49.623Z,1.53
2023-04-04T02:13:18.324Z,1.67
2023-04-04T02:15:49.446Z,1.63
2023-04-04T02:18:18.544Z,1.30
2023-04-04T02:20:46.776Z,1.17
2023-04-04T02:23:15.238Z,1.33
2023-04-04T02:25:43.374Z,1.20
2023-04-04T02:28:12.003Z,2.10
2023-04-04T02:30:40.259Z,1.33
2023-04-04T02:33:09.899Z,1.07
2023-04-04T02:35:38.346Z,2.10
2023-04-04T02:38:07.702Z,2.50
2023-04-04T02:40:43.403Z,1.50
2023-04-04T02:43:11.670Z,1.03
2023-04-04T02:45:40.759Z,1.00
2023-04-04T02:48:21.370Z,1.00
2023-04-04T02:50:52.213Z,1.00
2023-04-04T02:53:20.408Z,1.37
2023-04-04T02:55:51.145Z,1.10
2023-04-04T02:58:19.339Z,1.10
2023-04-04T03:00:48.111Z,2.23
2023-04-04T03:03:17.110Z,1.23
2023-04-04T03:05:50.413Z,1.17
2023-04-04T03:08:19.142Z,1.47
2023-04-04T03:10:47.551Z,0.93
2023-04-04T03:13:15.717Z,1.30
2023-04-04T03:15:43.949Z,1.30
2023-04-04T03:18:17.520Z,1.20
2023-04-04T03:20:46.448Z,1.10
2023-04-04T03:23:16.209Z,1.37
2023-04-04T03:25:44.698Z,1.40
2023-04-04T03:28:13.532Z,1.00
2023-04-04T03:30:42.145Z,1.30
2023-04-04T03:33:10.588Z,1.50
2023-04-04T03:35:40.761Z,1.57
2023-04-04T03:38:09.980Z,1.80
2023-04-04T03:40:39.918Z,1.50
2023-04-04T03:43:13.231Z,1.90
2023-04-04T03:45:42.847Z,1.70
2023-04-04T03:48:11.534Z,1.20
2023-04-04T03:50:41.205Z,2.30
2023-04-04T03:53:09.732Z,1.77
2023-04-04T03:55:41.694Z,1.60
2023-04-04T03:58:09.908Z,1.57
2023-04-04T04:00:38.172Z,1.37
2023-04-04T04:03:06.606Z,1.13
2023-04-04T04:05:34.823Z,1.10
2023-04-04T04:08:02.951Z,1.40
2023-04-04T04:10:31.675Z,2.17
2023-04-04T04:13:01.278Z,1.57
2023-04-04T04:15:30.136Z,1.50
2023-04-04T04:18:00.951Z,1.23
2023-04-04T04:20:29.849Z,1.83
2023-04-04T04:22:58.292Z,1.20
2023-04-04T04:25:26.553Z,1.60
2023-04-04T04:28:03.718Z,1.00
2023-04-04T04:30:32.723Z,1.73
2023-04-04T04:33:01.154Z,2.10
2023-04-04T04:35:37.430Z,1.93
2023-04-04T04:38:06.144Z,1.57
2023-04-04T04:40:34.423Z,1.40
2023-04-04T04:43:09.304Z,1.60
2023-04-04T04:45:37.635Z,1.47
2023-04-04T04:48:10.706Z,1.73
2023-04-04T04:50:49.446Z,1.70
2023-04-04T04:53:27.123Z,2.80
2023-04-04T04:55:55.309Z,1.50
2023-04-04T04:58:26.914Z,1.40
2023-04-04T05:00:58.924Z,2.00
2023-04-04T05:03:35.268Z,3.10
2023-04-04T05:06:06.849Z,1.70
2023-04-04T05:08:36.518Z,1.43
2023-04-04T05:11:13.218Z,1.80
2023-04-04T05:13:42.847Z,1.73
2023-04-04T05:16:11.376Z,1.40
2023-04-04T05:18:40.043Z,2.67
2023-04-04T05:21:11.320Z,1.47
2023-04-04T05:23:39.982Z,1.63
2023-04-04T05:26:09.625Z,2.77
2023-04-04T05:28:41.063Z,1.63
2023-04-04T05:31:10.560Z,1.97
2023-04-04T05:33:38.997Z,1.70
2023-04-04T05:36:14.921Z,1.70
2023-04-04T05:38:48.795Z,2.00
2023-04-04T05:41:20.904Z,1.93
2023-04-04T05:43:50.892Z,2.00
2023-04-04T05:46:25.153Z,1.90
2023-04-04T05:48:55.374Z,1.70
2023-04-04T05:51:24.811Z,1.90
2023-04-04T05:54:11.616Z,2.03
2023-04-04T05:56:40.858Z,1.73
2023-04-04T05:59:16.569Z,1.30
2023-04-04T06:01:56.098Z,2.23
2023-04-04T06:04:24.487Z,2.10
2023-04-04T06:06:55.241Z,1.43
2023-04-04T06:09:23.786Z,1.90
2023-04-04T06:11:52.041Z,1.30
2023-04-04T06:14:20.492Z,1.83
2023-04-04T06:16:48.782Z,1.40
2023-04-04T06:19:20.106Z,1.37
2023-04-04T06:21:49.610Z,1.10
2023-04-04T06:24:17.903Z,1.40
2023-04-04T06:26:51.343Z,1.73
2023-04-04T06:29:21.683Z,1.50
2023-04-04T06:31:50.913Z,1.30
2023-04-04T06:34:34.624Z,1.20
2023-04-04T06:37:03.585Z,1.10
2023-04-04T06:39:38.127Z,1.60
2023-04-04T06:42:12.524Z,1.47
2023-04-04T06:44:47.634Z,1.33
2023-04-04T06:47:16.157Z,1.40
2023-04-04T06:49:46.599Z,1.10
2023-04-04T06:52:15.474Z,1.10
2023-04-04T06:54:43.653Z,1.20
2023-04-04T06:57:12.004Z,0.70
2023-04-04T06:59:40.139Z,0.70
2023-04-04T07:02:09.368Z,0.73
2023-04-04T07:04:39.657Z,1.00
2023-04-04T07:07:09.152Z,0.80
2023-04-04T07:09:37.361Z,0.83
2023-04-04T07:12:06.155Z,0.80
2023-04-04T07:14:34.345Z,1.13
2023-04-04T07:17:10.639Z,1.60
2023-04-04T07:19:45.668Z,1.00
2023-04-04T07:22:15.758Z,1.33
2023-04-04T07:24:44.025Z,0.90
2023-04-04T07:27:15.257Z,0.60
2023-04-04T07:29:43.589Z,0.80
2023-04-04T07:32:11.823Z,0.80
2023-04-04T07:34:40.068Z,0.90
2023-04-04T07:37:08.305Z,0.60
2023-04-04T07:39:37.753Z,0.70
2023-04-04T07:42:06.159Z,0.70
2023-04-04T07:44:34.432Z,0.50
2023-04-04T07:47:09.711Z,0.97
2023-04-04T07:49:38.365Z,0.80
2023-04-04T07:52:06.628Z,0.60
2023-04-04T07:54:34.861Z,0.50
2023-04-04T07:57:06.037Z,0.90
2023-04-04T07:59:34.200Z,0.60
2023-04-04T08:02:02.385Z,0.60
2023-04-04T08:04:30.620Z,0.93
2023-04-04T08:06:58.824Z,0.70
2023-04-04T08:09:31.307Z,1.10
2023-04-04T08:11:59.886Z,0.60
2023-04-04T08:14:29.686Z,0.80
2023-04-04T08:16:57.892Z,0.90
2023-04-04T08:19:26.062Z,0.60
2023-04-04T08:21:54.215Z,0.50
2023-04-04T08:24:22.764Z,0.70
2023-04-04T08:26:58.209Z,0.60
2023-04-04T08:29:34.619Z,0.70
2023-04-04T08:32:02.994Z,0.83
2023-04-04T08:34:31.247Z,0.70
2023-04-04T08:37:00.183Z,0.70
2023-04-04T08:39:28.708Z,0.60
2023-04-04T08:42:03.707Z,0.60
2023-04-04T08:44:33.001Z,0.60
2023-04-04T08:47:06.191Z,0.63
2023-04-04T08:49:38.427Z,0.60
2023-04-04T08:52:08.110Z,0.70
2023-04-04T08:54:38.792Z,0.70
2023-04-04T08:57:08.432Z,0.60
2023-04-04T08:59:37.139Z,0.87
2023-04-04T09:02:24.456Z,0.50
2023-04-04T09:05:05.688Z,0.60
2023-04-04T09:07:38.558Z,0.60
2023-04-04T09:10:10.284Z,0.60
2023-04-04T09:12:40.546Z,0.73
2023-04-04T09:15:10.116Z,0.80
2023-04-04T09:17:39.967Z,0.73
2023-04-04T09:20:40.825Z,0.77
2023-04-04T09:23:12.009Z,0.60
2023-04-04T09:26:02.598Z,0.90
2023-04-04T09:28:32.798Z,0.90
2023-04-04T09:31:03.146Z,0.67
2023-04-04T09:33:34.388Z,0.93
2023-04-04T09:36:04.498Z,0.90
2023-04-04T09:38:32.816Z,1.17
2023-04-04T09:41:01.227Z,1.03
2023-04-04T09:43:32.322Z,1.33
2023-04-04T09:46:02.324Z,1.77
2023-04-04T09:48:33.419Z,1.00
2023-04-04T09:51:04.769Z,1.10
2023-04-04T09:53:35.844Z,1.07
2023-04-04T09:56:07.934Z,0.80
2023-04-04T09:58:46.312Z,1.17
2023-04-04T10:01:18.977Z,1.00
2023-04-04T10:03:54.201Z,0.70
2023-04-04T10:06:23.228Z,0.90
2023-04-04T10:08:51.679Z,1.00
2023-04-04T10:11:29.822Z,0.87
2023-04-04T10:13:58.887Z,1.30
2023-04-04T10:16:27.781Z,0.77
2023-04-04T10:18:57.625Z,0.80
2023-04-04T10:21:25.792Z,1.10
2023-04-04T10:23:54.396Z,0.80
2023-04-04T10:26:23.122Z,0.77
2023-04-04T10:28:51.277Z,0.70
2023-04-04T10:31:24.275Z,0.70
2023-04-04T10:34:05.110Z,0.97
2023-04-04T10:36:41.719Z,0.67
2023-04-04T10:39:15.474Z,0.80
2023-04-04T10:41:45.255Z,0.70
2023-04-04T10:44:19.837Z,0.63
2023-04-04T10:46:53.616Z,0.60
2023-04-04T10:49:24.105Z,0.80
2023-04-04T10:51:56.919Z,0.70
2023-04-04T10:54:27.596Z,0.70
2023-04-04T10:57:00.658Z,0.90
2023-04-04T10:59:29.437Z,0.73
2023-04-04T11:01:59.110Z,0.60
2023-04-04T11:04:34.998Z,0.90
2023-04-04T11:07:11.230Z,0.90
2023-04-04T11:09:53.861Z,0.80
2023-04-04T11:12:24.240Z,0.70
2023-04-04T11:15:11.272Z,1.07
2023-04-04T11:17:44.067Z,1.10
2023-04-04T11:20:16.951Z,0.80
2023-04-04T11:22:45.816Z,0.90
2023-04-04T11:25:33.969Z,0.80
2023-04-04T11:28:06.765Z,0.60
2023-04-04T11:30:48.917Z,0.70
2023-04-04T11:33:28.629Z,0.83
2023-04-04T11:36:01.622Z,0.77
2023-04-04T11:38:33.256Z,1.10
2023-04-04T11:41:01.485Z,0.83
2023-04-04T11:43:29.815Z,1.13
2023-04-04T11:46:10.179Z,0.70
2023-04-04T11:48:39.802Z,0.70
2023-04-04T11:51:11.450Z,0.70
2023-04-04T11:53:43.549Z,1.17
2023-04-04T11:56:16.402Z,1.13
2023-04-04T11:58:50.574Z,0.90
2023-04-04T12:01:22.296Z,0.53
2023-04-04T12:03:50.545Z,0.80
2023-04-04T12:06:20.122Z,1.00
2023-04-04T12:08:48.484Z,0.90
2023-04-04T12:11:18.716Z,0.60
2023-04-04T12:13:46.934Z,0.70
2023-04-04T12:16:15.153Z,0.60
2023-04-04T12:18:43.774Z,0.70
2023-04-04T12:21:12.021Z,0.70
2023-04-04T12:23:42.011Z,0.70
2023-04-04T12:26:11.365Z,0.60
2023-04-04T12:28:40.184Z,0.70
2023-04-04T12:31:08.960Z,0.80
2023-04-04T12:33:38.044Z,0.90
2023-04-04T12:36:07.138Z,0.67
2023-04-04T12:38:35.688Z,0.67
2023-04-04T12:41:05.335Z,0.60
2023-04-04T12:43:34.850Z,0.70
2023-04-04T12:46:03.709Z,0.50
2023-04-04T12:48:34.235Z,1.00
2023-04-04T12:51:04.825Z,0.67
2023-04-04T12:53:33.648Z,0.60
2023-04-04T12:56:04.396Z,0.60
2023-04-04T12:58:35.986Z,0.60
2023-04-04T13:01:06.986Z,0.87
2023-04-04T13:03:37.893Z,0.60
2023-04-04T13:06:12.820Z,0.70
2023-04-04T13:08:50.401Z,0.77
2023-04-04T13:11:18.735Z,1.00
2023-04-04T13:13:48.984Z,0.90
2023-04-04T13:16:31.302Z,0.70
2023-04-04T13:19:00.216Z,1.00
2023-04-04T13:21:28.436Z,0.70
2023-04-04T13:23:56.549Z,0.70
2023-04-04T13:26:24.731Z,0.70
2023-04-04T13:28:54.386Z,0.60
2023-04-04T13:31:25.452Z,0.80
2023-04-04T13:33:53.622Z,0.63
2023-04-04T13:36:21.799Z,0.63
2023-04-04T13:38:50.024Z,0.60
2023-04-04T13:41:18.192Z,0.60
2023-04-04T13:43:46.382Z,0.50
2023-04-04T13:46:16.132Z,0.63
2023-04-04T13:48:44.298Z,0.93
2023-04-04T13:51:12.444Z,0.80
2023-04-04T13:53:41.518Z,0.80
2023-04-04T13:58:41.070Z,1.53
2023-04-04T14:01:09.386Z,0.70
2023-04-04T14:03:39.352Z,0.70
2023-04-04T14:06:10.932Z,0.70
2023-04-04T14:08:39.930Z,0.60
2023-04-04T14:11:08.378Z,1.00
2023-04-04T14:13:37.203Z,0.70
2023-04-04T14:16:06.210Z,0.70
2023-04-04T14:18:35.151Z,0.63
2023-04-04T14:21:07.503Z,0.80
2023-04-04T14:23:35.798Z,0.80
2023-04-04T14:26:04.449Z,1.00
2023-04-04T14:28:32.762Z,0.80
2023-04-04T14:31:01.522Z,0.80
2023-04-04T14:33:30.009Z,0.80
2023-04-04T14:35:58.170Z,1.07
2023-04-04T14:38:27.660Z,0.70
2023-04-04T14:40:55.801Z,0.80
2023-04-04T14:43:24.230Z,0.80
2023-04-04T14:45:52.404Z,0.60
2023-04-04T14:48:20.554Z,1.10
2023-04-04T14:50:48.713Z,0.80
2023-04-04T14:53:17.311Z,0.63
2023-04-04T14:55:46.793Z,0.80
2023-04-04T14:58:15.000Z,0.50
2023-04-04T15:00:43.279Z,0.80
2023-04-04T15:03:11.460Z,0.80
2023-04-04T15:05:39.860Z,0.90
2023-04-04T15:08:08.434Z,0.60
2023-04-04T15:10:36.805Z,0.70
2023-04-04T15:13:06.884Z,0.70
2023-04-04T15:15:35.009Z,1.43
2023-04-04T15:18:03.510Z,0.77
2023-04-04T15:20:31.972Z,0.67
2023-04-04T15:23:00.210Z,0.80
2023-04-04T15:25:29.828Z,0.90
2023-04-04T15:27:58.012Z,0.80
2023-04-04T15:30:28.017Z,0.80
2023-04-04T15:32:57.163Z,1.07
2023-04-04T15:35:25.459Z,0.90
2023-04-04T15:37:53.617Z,1.10
2023-04-04T15:40:22.413Z,0.70
2023-04-04T15:42:51.320Z,0.67
2023-04-04T15:45:19.746Z,0.93
2023-04-04T15:47:49.235Z,0.60
2023-04-04T15:50:17.454Z,0.60
2023-04-04T15:52:45.601Z,0.70
2023-04-04T15:55:17.259Z,0.80
2023-04-04T15:57:46.109Z,0.73
2023-04-04T16:00:16.882Z,0.80
2023-04-04T16:02:45.389Z,0.70
2023-04-04T16:05:14.991Z,0.80
2023-04-04T16:07:43.583Z,1.10
2023-04-04T16:10:11.868Z,0.70
2023-04-04T16:12:40.091Z,1.00
2023-04-04T16:15:09.910Z,0.70
2023-04-04T16:17:38.299Z,1.00
2023-04-04T16:20:07.750Z,0.70
2023-04-04T16:22:37.240Z,0.80
2023-04-04T16:25:08.746Z,1.77
2023-04-04T16:27:37.167Z,0.77
2023-04-04T16:30:06.331Z,1.00
2023-04-04T16:32:34.655Z,0.80
2023-04-04T16:35:02.788Z,1.10
2023-04-04T16:37:30.953Z,1.10
2023-04-04T16:40:01.179Z,1.10
2023-04-04T16:42:29.503Z,0.77
2023-04-04T16:44:57.978Z,0.80
2023-04-04T16:47:26.913Z,0.90
2023-04-04T16:49:56.425Z,0.80
2023-04-04T16:52:24.593Z,0.83
2023-04-04T16:54:54.311Z,0.87
2023-04-04T16:57:23.997Z,0.80
2023-04-04T16:59:52.126Z,0.80
2023-04-04T17:02:20.352Z,0.83
2023-04-04T17:04:48.566Z,1.77
2023-04-04T17:07:16.895Z,0.90
2023-04-04T17:09:47.097Z,1.00
2023-04-04T17:12:16.342Z,0.87
2023-04-04T17:14:46.538Z,0.83
2023-04-04T17:17:15.325Z,0.90
2023-04-04T17:19:43.512Z,0.93
2023-04-04T17:22:12.050Z,0.80
2023-04-04T17:24:40.698Z,0.90
2023-04-04T17:27:09.235Z,0.97
2023-04-04T17:29:37.796Z,0.90
2023-04-04T17:32:07.676Z,1.10
2023-04-04T17:34:36.001Z,0.90
2023-04-04T17:37:04.192Z,1.03
2023-04-04T17:39:32.750Z,1.20
2023-04-04T17:42:01.015Z,1.23
2023-04-04T17:44:29.133Z,1.50
2023-04-04T17:46:57.295Z,0.80
2023-04-04T17:49:27.177Z,0.90
2023-04-04T17:51:55.264Z,0.90
2023-04-04T17:54:23.607Z,1.10
2023-04-04T17:56:52.287Z,1.10
2023-04-04T17:59:20.947Z,1.03
2023-04-04T18:01:49.197Z,1.00
2023-04-04T18:04:17.668Z,1.60
2023-04-04T18:06:47.244Z,1.20
2023-04-04T18:09:15.587Z,2.03
2023-04-04T18:11:43.777Z,1.63
2023-04-04T18:14:12.078Z,1.00
2023-04-04T18:16:41.224Z,1.37
2023-04-04T18:19:11.022Z,2.03
2023-04-04T18:21:39.487Z,3.73
2023-04-04T18:24:11.679Z,5.00
2023-04-04T18:26:39.987Z,4.90
2023-04-04T18:29:08.509Z,7.30
2023-04-04T18:31:36.790Z,6.27
2023-04-04T18:34:04.969Z,3.80
2023-04-04T18:36:33.340Z,2.00
2023-04-04T18:39:01.906Z,2.93
2023-04-04T18:41:31.497Z,2.40
2023-04-04T18:43:59.675Z,2.60
2023-04-04T18:46:27.845Z,1.60
2023-04-04T18:48:56.266Z,1.53
2023-04-04T18:51:24.474Z,1.37
2023-04-04T18:53:52.685Z,1.00
2023-04-04T18:56:21.525Z,1.10
2023-04-04T18:58:51.870Z,1.20
2023-04-04T19:01:20.173Z,1.30
2023-04-04T19:03:51.441Z,0.87
2023-04-04T19:06:19.688Z,0.90
2023-04-04T19:08:48.857Z,1.00
2023-04-04T19:11:16.997Z,1.73
2023-04-04T19:13:45.124Z,0.90
2023-04-04T19:16:14.646Z,1.10
2023-04-04T19:18:43.655Z,1.07
2023-04-04T19:21:11.899Z,1.30
2023-04-04T19:23:40.089Z,1.40
2023-04-04T19:26:08.330Z,1.20
2023-04-04T19:28:36.751Z,0.97
2023-04-04T19:31:10.960Z,1.30
2023-04-04T19:33:40.657Z,1.10
2023-04-04T19:36:11.023Z,1.00
2023-04-04T19:38:42.328Z,0.90
2023-04-04T19:41:13.792Z,0.80
2023-04-04T19:43:44.986Z,1.83
2023-04-04T19:46:16.461Z,1.23
2023-04-04T19:48:49.535Z,1.13
2023-04-04T19:51:37.630Z,1.17
2023-04-04T19:54:08.381Z,1.10
2023-04-04T19:56:37.203Z,1.73
2023-04-04T19:59:09.963Z,1.00
2023-04-04T20:01:44.700Z,1.30
2023-04-04T20:04:20.020Z,1.37
2023-04-04T20:06:48.817Z,1.23
2023-04-04T20:09:34.492Z,1.23
2023-04-04T20:12:02.763Z,2.60
2023-04-04T20:14:31.001Z,3.50
2023-04-04T20:16:59.132Z,4.20
2023-04-04T20:19:29.657Z,2.57
2023-04-04T20:21:57.918Z,2.70
2023-04-04T20:24:26.426Z,2.00
2023-04-04T20:26:56.871Z,1.83
2023-04-04T20:29:27.097Z,1.50
2023-04-04T20:31:57.607Z,2.40
2023-04-04T20:34:41.596Z,1.80
2023-04-04T20:37:13.347Z,3.63
2023-04-04T20:39:46.538Z,7.33
2023-04-04T20:42:33.945Z,6.10
2023-04-04T20:45:13.364Z,4.10
2023-04-04T20:47:44.117Z,4.20
2023-04-04T20:50:45.006Z,2.90
2023-04-04T20:53:19.266Z,2.90
2023-04-04T20:55:47.550Z,1.70
2023-04-04T20:58:27.936Z,1.10
2023-04-04T21:00:57.846Z,1.00
2023-04-04T21:03:32.166Z,1.40
2023-04-04T21:06:04.375Z,1.53
2023-04-04T21:08:44.112Z,1.80
2023-04-04T21:11:13.574Z,3.20
2023-04-04T21:13:42.979Z,2.27
2023-04-04T21:16:12.392Z,2.20
2023-04-04T21:18:41.893Z,2.30
2023-04-04T21:21:19.627Z,2.50
2023-04-04T21:23:50.238Z,2.90
2023-04-04T21:26:33.999Z,3.57
2023-04-04T21:29:05.391Z,3.30
2023-04-04T21:31:41.578Z,3.10
2023-04-04T21:34:12.555Z,2.10
2023-04-04T21:36:42.606Z,2.00
2023-04-04T21:39:13.708Z,1.50
2023-04-04T21:41:44.247Z,1.00
2023-04-04T21:44:12.395Z,1.20
2023-04-04T21:46:42.233Z,1.07
2023-04-04T21:49:11.056Z,1.87
2023-04-04T21:51:39.345Z,1.83
2023-04-04T21:54:09.122Z,1.50
2023-04-04T21:56:38.417Z,1.40
2023-04-04T21:59:09.017Z,2.00
2023-04-04T22:01:37.586Z,3.00
2023-04-04T22:04:05.901Z,2.03
2023-04-04T22:06:34.047Z,1.80
2023-04-04T22:09:03.056Z,2.07
2023-04-04T22:11:34.586Z,2.60
2023-04-04T22:14:07.273Z,3.37
2023-04-04T22:16:38.980Z,4.70
2023-04-04T22:19:11.282Z,6.40
2023-04-04T22:21:47.873Z,4.80
2023-04-04T22:24:18.850Z,5.13
2023-04-04T22:26:50.445Z,4.10
2023-04-04T22:29:18.767Z,4.37
2023-04-04T22:31:46.949Z,4.00
2023-04-04T22:34:15.633Z,4.00
2023-04-04T22:36:44.570Z,4.00
2023-04-04T22:39:15.930Z,4.07
2023-04-04T22:41:45.099Z,4.20
2023-04-04T22:44:14.982Z,3.60
2023-04-04T22:46:43.428Z,3.03
2023-04-04T22:49:13.298Z,2.70
2023-04-04T22:51:45.661Z,3.10
2023-04-04T22:54:15.406Z,2.37
2023-04-04T22:56:43.711Z,3.30
2023-04-04T22:59:12.357Z,3.83
2023-04-04T23:01:42.203Z,3.70
2023-04-04T23:04:10.939Z,2.93
2023-04-04T23:06:39.229Z,2.53
2023-04-04T23:09:08.546Z,1.33
2023-04-04T23:11:37.617Z,1.60
2023-04-04T23:14:08.896Z,1.40
2023-04-04T23:16:37.671Z,1.57
2023-04-04T23:19:07.556Z,1.47
2023-04-04T23:21:36.667Z,1.30
2023-04-04T23:24:05.638Z,1.67
2023-04-04T23:26:34.081Z,0.90
2023-04-04T23:29:03.028Z,1.20
2023-04-04T23:31:31.491Z,1.50
2023-04-04T23:33:59.726Z,1.30
2023-04-04T23:36:29.578Z,1.00
2023-04-04T23:38:57.795Z,0.90
2023-04-04T23:41:26.317Z,1.33
2023-04-04T23:43:54.587Z,1.43
2023-04-04T23:46:23.942Z,1.20
2023-04-04T23:48:52.244Z,0.83
2023-04-04T23:51:21.336Z,1.20
2023-04-04T23:53:50.839Z,1.07
2023-04-04T23:56:19.269Z,1.60
2023-04-04T23:58:47.417Z,0.90
